createdAt,value
2017-03-16T00:00:19.849Z,67.81
2017-03-16T00:00:41.648Z,68.08
2017-03-16T00:01:03.437Z,68.22
2017-03-16T00:01:25.185Z,68.00
2017-03-16T00:01:47.053Z,67.82
2017-03-16T00:02:08.854Z,67.69
2017-03-16T00:02:30.646Z,67.50
2017-03-16T00:02:52.481Z,67.56
2017-03-16T00:03:14.447Z,67.65
2017-03-16T00:03:36.320Z,67.86
2017-03-16T00:03:58.239Z,67.95
2017-03-16T00:04:20.099Z,67.82
2017-03-16T00:04:41.882Z,67.72
2017-03-16T00:05:08.553Z,67.50
2017-03-16T00:05:30.366Z,67.30
2017-03-16T00:05:52.820Z,67.46
2017-03-16T00:06:14.559Z,67.84
2017-03-16T00:06:36.500Z,67.96
2017-03-16T00:06:58.265Z,68.15
2017-03-16T00:07:20.060Z,68.32
2017-03-16T00:07:41.865Z,68.33
2017-03-16T00:08:03.698Z,68.22
2017-03-16T00:08:25.476Z,68.23
2017-03-16T00:08:47.218Z,68.33
2017-03-16T00:09:08.996Z,68.25
2017-03-16T00:09:30.777Z,68.61
2017-03-16T00:09:52.551Z,68.52
2017-03-16T00:10:14.281Z,68.75
2017-03-16T00:10:36.086Z,68.79
2017-03-16T00:10:58.031Z,68.71
2017-03-16T00:11:19.780Z,68.50
2017-03-16T00:11:41.577Z,68.30
2017-03-16T00:12:06.187Z,68.19
2017-03-16T00:12:28.079Z,68.07
2017-03-16T00:12:49.859Z,67.99
2017-03-16T00:13:11.597Z,67.81
2017-03-16T00:13:33.364Z,67.58
2017-03-16T00:13:55.357Z,67.39
2017-03-16T00:14:17.116Z,67.66
2017-03-16T00:14:38.867Z,67.87
2017-03-16T00:15:00.775Z,68.26
2017-03-16T00:15:25.176Z,68.76
2017-03-16T00:15:47.190Z,68.80
2017-03-16T00:16:08.990Z,69.10
2017-03-16T00:16:30.813Z,68.81
2017-03-16T00:16:52.713Z,68.74
2017-03-16T00:17:19.228Z,68.65
2017-03-16T00:17:41.068Z,68.63
2017-03-16T00:18:02.954Z,68.77
2017-03-16T00:18:24.723Z,68.88
2017-03-16T00:18:46.626Z,68.61
2017-03-16T00:19:08.429Z,68.30
2017-03-16T00:19:30.388Z,67.96
2017-03-16T00:19:52.167Z,67.96
2017-03-16T00:20:18.700Z,68.23
2017-03-16T00:20:46.403Z,68.44
2017-03-16T00:21:08.214Z,68.56
2017-03-16T00:21:34.953Z,68.49
2017-03-16T00:21:59.095Z,68.49
2017-03-16T00:22:20.857Z,68.82
2017-03-16T00:22:42.745Z,68.90
2017-03-16T00:23:04.623Z,68.68
2017-03-16T00:23:26.396Z,68.40
2017-03-16T00:23:48.312Z,68.14
2017-03-16T00:24:10.053Z,68.32
2017-03-16T00:24:31.874Z,68.17
2017-03-16T00:24:53.606Z,68.02
2017-03-16T00:25:18.284Z,68.04
2017-03-16T00:25:40.085Z,68.23
2017-03-16T00:26:01.884Z,68.25
2017-03-16T00:26:23.629Z,67.98
2017-03-16T00:26:45.472Z,68.14
2017-03-16T00:27:07.240Z,68.23
2017-03-16T00:27:29.072Z,68.29
2017-03-16T00:27:50.764Z,68.15
2017-03-16T00:28:15.649Z,68.11
2017-03-16T00:28:37.381Z,68.07
2017-03-16T00:28:59.189Z,68.10
2017-03-16T00:29:20.988Z,68.40
2017-03-16T00:29:42.741Z,68.52
2017-03-16T00:30:04.606Z,68.60
2017-03-16T00:30:26.347Z,68.63
2017-03-16T00:30:48.177Z,68.37
2017-03-16T00:31:12.877Z,68.08
2017-03-16T00:31:34.697Z,67.90
2017-03-16T00:31:56.492Z,68.30
2017-03-16T00:32:21.198Z,68.48
2017-03-16T00:32:42.892Z,68.25
2017-03-16T00:33:04.770Z,68.36
2017-03-16T00:33:26.541Z,68.59
2017-03-16T00:33:48.376Z,68.75
2017-03-16T00:35:27.955Z,68.35
2017-03-16T00:35:49.783Z,68.41
2017-03-16T00:36:11.564Z,68.62
2017-03-16T00:36:33.327Z,68.87
2017-03-16T00:36:55.258Z,68.78
2017-03-16T00:37:17.116Z,68.57
2017-03-16T00:37:39.026Z,68.47
2017-03-16T00:38:00.755Z,68.56
2017-03-16T00:38:22.492Z,68.47
2017-03-16T00:38:44.297Z,68.57
2017-03-16T00:39:06.026Z,68.79
2017-03-16T00:39:27.817Z,69.19
2017-03-16T00:39:49.713Z,69.25
2017-03-16T00:40:11.689Z,69.11
2017-03-16T00:40:33.673Z,68.61
2017-03-16T00:40:55.503Z,68.25
2017-03-16T00:41:17.337Z,68.17
2017-03-16T00:41:39.094Z,68.41
2017-03-16T00:42:01.278Z,68.54
2017-03-16T00:42:23.291Z,68.67
2017-03-16T00:42:45.251Z,68.75
2017-03-16T00:43:10.143Z,68.47
2017-03-16T00:43:32.573Z,68.60
2017-03-16T00:44:00.253Z,68.99
2017-03-16T00:44:21.994Z,68.95
2017-03-16T00:44:43.725Z,69.12
2017-03-16T00:45:05.625Z,68.97
2017-03-16T00:45:27.392Z,68.89
2017-03-16T00:45:49.174Z,68.75
2017-03-16T00:46:10.916Z,68.81
2017-03-16T00:46:32.881Z,68.72
2017-03-16T00:46:54.592Z,68.35
2017-03-16T00:47:16.319Z,68.28
2017-03-16T00:47:38.112Z,68.38
2017-03-16T00:48:00.012Z,68.28
2017-03-16T00:48:22.186Z,68.58
2017-03-16T00:48:44.036Z,68.83
2017-03-16T00:49:05.884Z,69.25
2017-03-16T00:49:27.592Z,69.52
2017-03-16T00:49:49.643Z,69.54
2017-03-16T00:50:11.396Z,69.33
2017-03-16T00:50:33.096Z,69.13
2017-03-16T00:50:55.933Z,68.92
2017-03-16T00:52:04.283Z,68.61
2017-03-16T00:52:28.975Z,69.01
2017-03-16T00:52:50.932Z,69.11
2017-03-16T00:53:12.775Z,69.35
2017-03-16T00:53:34.593Z,69.76
2017-03-16T00:53:56.360Z,69.62
2017-03-16T00:54:18.172Z,69.41
2017-03-16T00:54:41.279Z,69.39
2017-03-16T00:55:03.084Z,69.37
2017-03-16T00:55:25.010Z,69.29
2017-03-16T00:55:46.937Z,69.24
2017-03-16T00:56:08.686Z,69.11
2017-03-16T00:56:30.540Z,68.92
2017-03-16T00:56:52.433Z,68.66
2017-03-16T00:57:14.342Z,68.40
2017-03-16T00:57:36.072Z,68.28
2017-03-16T00:57:57.805Z,68.37
2017-03-16T00:58:19.712Z,68.55
2017-03-16T00:58:41.705Z,68.68
2017-03-16T00:59:03.427Z,68.76
2017-03-16T00:59:25.233Z,68.95
2017-03-16T00:59:47.110Z,69.04
2017-03-16T01:00:08.750Z,69.08
2017-03-16T01:00:30.921Z,68.86
2017-03-16T01:00:52.817Z,68.63
2017-03-16T01:01:14.905Z,68.39
2017-03-16T01:01:36.783Z,68.16
2017-03-16T01:01:58.807Z,68.39
2017-03-16T01:02:20.776Z,68.11
2017-03-16T01:02:42.518Z,67.90
2017-03-16T01:03:04.418Z,67.88
2017-03-16T01:03:26.316Z,68.14
2017-03-16T01:03:48.070Z,68.08
2017-03-16T01:04:10.066Z,67.92
2017-03-16T01:05:08.441Z,68.12
2017-03-16T01:05:30.310Z,68.32
2017-03-16T01:05:52.389Z,68.56
2017-03-16T01:06:14.272Z,68.77
2017-03-16T01:07:16.816Z,69.30
2017-03-16T01:07:38.628Z,69.07
2017-03-16T01:08:48.481Z,69.08
2017-03-16T01:09:10.799Z,68.89
2017-03-16T01:09:33.660Z,68.54
2017-03-16T01:09:55.763Z,68.34
2017-03-16T01:10:17.680Z,68.34
2017-03-16T01:10:39.445Z,68.37
2017-03-16T01:11:01.634Z,68.68
2017-03-16T01:11:23.714Z,68.65
2017-03-16T01:11:45.452Z,68.65
2017-03-16T01:12:12.944Z,68.89
2017-03-16T01:12:34.793Z,69.17
2017-03-16T01:12:56.531Z,69.22
2017-03-16T01:13:18.295Z,69.12
2017-03-16T01:13:40.129Z,68.91
2017-03-16T01:14:01.985Z,68.73
2017-03-16T01:14:23.852Z,68.65
2017-03-16T01:14:45.586Z,68.59
2017-03-16T01:15:07.362Z,68.64
2017-03-16T01:15:30.380Z,68.84
2017-03-16T01:15:52.137Z,68.75
2017-03-16T01:21:26.120Z,68.88
2017-03-16T01:24:24.090Z,68.87
2017-03-16T01:25:26.597Z,68.09
2017-03-16T01:25:48.445Z,68.32
2017-03-16T01:26:10.374Z,68.40
2017-03-16T01:26:32.429Z,68.26
2017-03-16T01:26:54.128Z,68.02
2017-03-16T01:27:57.981Z,67.60
2017-03-16T01:28:23.035Z,67.54
2017-03-16T01:28:45.054Z,67.43
2017-03-16T01:29:06.982Z,67.40
2017-03-16T01:29:28.943Z,67.44
2017-03-16T01:29:50.859Z,67.71
2017-03-16T01:30:12.652Z,67.71
2017-03-16T01:30:34.579Z,67.85
2017-03-16T01:30:56.520Z,67.96
2017-03-16T01:31:18.730Z,67.90
2017-03-16T01:31:40.717Z,67.80
2017-03-16T01:32:02.585Z,67.95
2017-03-16T01:32:24.311Z,68.70
2017-03-16T01:32:46.062Z,69.28
2017-03-16T01:33:10.639Z,69.20
2017-03-16T01:33:32.630Z,69.47
2017-03-16T01:33:55.185Z,69.14
2017-03-16T01:34:17.076Z,69.28
2017-03-16T01:34:39.301Z,69.16
2017-03-16T01:35:01.113Z,68.80
2017-03-16T01:35:23.153Z,68.53
2017-03-16T01:35:44.970Z,68.40
2017-03-16T01:36:10.329Z,67.93
2017-03-16T01:36:32.192Z,67.71
2017-03-16T01:37:01.577Z,67.58
2017-03-16T01:37:25.887Z,67.96
2017-03-16T01:37:47.885Z,68.07
2017-03-16T01:44:49.981Z,69.01
2017-03-16T01:45:12.222Z,68.62
2017-03-16T01:45:33.960Z,68.28
2017-03-16T01:45:55.781Z,68.18
2017-03-16T01:46:17.882Z,68.35
2017-03-16T01:46:39.657Z,68.42
2017-03-16T01:47:01.471Z,68.63
2017-03-16T01:47:23.241Z,68.46
2017-03-16T01:47:45.067Z,68.52
2017-03-16T01:48:06.937Z,68.87
2017-03-16T01:48:28.649Z,68.71
2017-03-16T01:49:31.159Z,68.56
2017-03-16T01:49:52.916Z,68.42
2017-03-16T01:50:14.631Z,68.10
2017-03-16T01:50:36.439Z,68.05
2017-03-16T01:50:58.181Z,67.98
2017-03-16T01:51:19.901Z,67.83
2017-03-16T01:51:41.644Z,67.56
2017-03-16T01:52:03.473Z,67.37
2017-03-16T01:52:25.190Z,67.25
2017-03-16T01:52:46.929Z,67.30
2017-03-16T01:53:09.652Z,67.50
2017-03-16T01:53:31.431Z,67.80
2017-03-16T01:54:34.492Z,67.52
2017-03-16T01:54:56.310Z,67.25
2017-03-16T01:55:59.392Z,68.00
2017-03-16T01:56:21.221Z,68.16
2017-03-16T01:56:52.501Z,68.50
2017-03-16T01:57:14.196Z,68.14
2017-03-16T01:58:21.500Z,67.68
2017-03-16T01:58:43.212Z,67.74
2017-03-16T01:59:04.945Z,67.66
2017-03-16T01:59:31.466Z,67.31
2017-03-16T01:59:53.213Z,67.25
2017-03-16T02:00:56.384Z,67.22
2017-03-16T02:01:18.076Z,67.33
2017-03-16T02:01:44.562Z,67.50
2017-03-16T02:02:06.312Z,67.32
2017-03-16T02:02:32.885Z,67.27
2017-03-16T02:02:54.596Z,67.15
2017-03-16T02:03:21.066Z,67.18
2017-03-16T02:03:42.797Z,67.07
2017-03-16T02:04:09.360Z,67.03
2017-03-16T02:04:31.107Z,67.03
2017-03-16T02:04:57.614Z,67.08
2017-03-16T02:06:00.126Z,66.74
2017-03-16T02:06:26.663Z,66.95
2017-03-16T02:06:48.391Z,67.08
2017-03-16T02:08:00.451Z,67.26
2017-03-16T02:08:22.204Z,67.32
2017-03-16T02:08:43.997Z,67.95
2017-03-16T02:09:10.496Z,68.06
2017-03-16T02:09:32.194Z,68.24
2017-03-16T02:09:53.926Z,68.11
2017-03-16T02:10:15.749Z,68.07
2017-03-16T02:10:37.461Z,68.13
2017-03-16T02:11:03.953Z,67.99
2017-03-16T02:11:25.723Z,68.20
2017-03-16T02:11:47.437Z,68.40
2017-03-16T02:12:09.140Z,68.17
2017-03-16T02:12:30.877Z,68.09
2017-03-16T02:13:38.161Z,68.16
2017-03-16T02:13:59.988Z,68.22
2017-03-16T02:14:31.393Z,68.19
2017-03-16T02:14:53.232Z,68.04
2017-03-16T02:15:19.775Z,67.89
2017-03-16T02:15:41.502Z,67.77
2017-03-16T02:16:03.213Z,67.85
2017-03-16T02:16:29.702Z,67.80
2017-03-16T02:16:51.489Z,67.73
2017-03-16T02:17:54.614Z,68.25
2017-03-16T02:18:16.419Z,68.40
2017-03-16T02:18:38.170Z,68.20
2017-03-16T02:19:04.662Z,68.15
2017-03-16T02:19:26.373Z,68.21
2017-03-16T02:20:29.666Z,68.08
2017-03-16T02:20:51.394Z,68.13
2017-03-16T02:21:22.788Z,68.36
2017-03-16T02:21:44.432Z,68.50
2017-03-16T02:22:15.717Z,68.36
2017-03-16T02:22:37.484Z,68.52
2017-03-16T02:23:08.760Z,68.72
2017-03-16T02:23:30.474Z,68.72
2017-03-16T02:23:57.025Z,68.72
2017-03-16T02:24:18.747Z,68.64
2017-03-16T02:24:40.459Z,68.76
2017-03-16T02:25:11.723Z,68.35
2017-03-16T02:25:33.531Z,68.31
2017-03-16T02:25:55.279Z,68.44
2017-03-16T02:26:16.991Z,68.58
2017-03-16T02:26:38.816Z,68.99
2017-03-16T02:27:05.285Z,69.29
2017-03-16T02:27:26.995Z,69.38
2017-03-16T02:27:53.536Z,69.51
2017-03-16T02:28:15.239Z,69.44
2017-03-16T02:28:41.729Z,69.36
2017-03-16T02:29:03.434Z,69.24
2017-03-16T02:29:30.074Z,69.25
2017-03-16T02:29:51.811Z,69.24
2017-03-16T02:30:13.525Z,69.30
2017-03-16T02:30:44.907Z,69.69
2017-03-16T02:31:06.600Z,69.72
2017-03-16T02:31:37.876Z,69.57
2017-03-16T02:31:59.646Z,69.63
2017-03-16T02:32:30.918Z,68.95
2017-03-16T02:32:52.641Z,68.76
2017-03-16T02:33:14.439Z,68.62
2017-03-16T02:33:40.928Z,68.42
2017-03-16T02:34:02.649Z,68.09
2017-03-16T02:34:24.482Z,67.90
2017-03-16T02:34:50.977Z,68.20
2017-03-16T02:35:12.698Z,68.73
2017-03-16T02:36:19.996Z,68.55
2017-03-16T02:36:41.735Z,68.56
2017-03-16T02:37:08.291Z,68.35
2017-03-16T02:37:30.022Z,68.18
2017-03-16T02:37:56.536Z,67.88
2017-03-16T02:38:18.248Z,67.84
2017-03-16T02:38:44.871Z,68.10
2017-03-16T02:39:06.594Z,68.26
2017-03-16T02:39:33.084Z,68.33
2017-03-16T02:39:54.825Z,68.03
2017-03-16T02:40:21.361Z,68.02
2017-03-16T02:40:47.845Z,68.26
2017-03-16T02:41:09.581Z,68.58
2017-03-16T02:41:41.003Z,68.70
2017-03-16T02:42:02.663Z,68.77
2017-03-16T02:42:24.392Z,68.70
2017-03-16T02:42:50.889Z,68.36
2017-03-16T02:43:12.686Z,68.14
2017-03-16T02:43:34.409Z,67.97
2017-03-16T02:43:56.139Z,67.95
2017-03-16T02:44:17.879Z,67.90
2017-03-16T02:45:21.267Z,68.21
2017-03-16T02:45:42.989Z,68.47
2017-03-16T02:46:14.258Z,68.64
2017-03-16T02:46:36.069Z,68.63
2017-03-16T02:47:02.589Z,68.79
2017-03-16T02:47:24.318Z,68.87
2017-03-16T02:47:46.119Z,69.02
2017-03-16T02:48:12.620Z,69.23
2017-03-16T02:48:34.378Z,69.16
2017-03-16T02:49:37.643Z,68.83
2017-03-16T02:49:59.356Z,68.67
2017-03-16T02:50:21.078Z,68.44
2017-03-16T02:50:47.596Z,68.31
2017-03-16T02:51:09.300Z,68.19
2017-03-16T02:51:35.788Z,68.03
2017-03-16T02:51:57.554Z,67.89
2017-03-16T02:52:24.130Z,67.86
2017-03-16T02:52:45.869Z,67.68
2017-03-16T02:53:57.944Z,68.14
2017-03-16T02:54:19.755Z,68.55
2017-03-16T02:54:41.523Z,68.61
2017-03-16T02:55:08.006Z,68.35
2017-03-16T02:55:29.781Z,68.26
2017-03-16T02:56:37.083Z,68.03
2017-03-16T02:56:58.926Z,68.13
2017-03-16T02:57:30.197Z,68.26
2017-03-16T02:57:57.240Z,68.05
2017-03-16T02:58:23.824Z,68.18
2017-03-16T02:59:31.108Z,68.08
2017-03-16T02:59:52.977Z,67.97
2017-03-16T03:01:41.122Z,68.81
2017-03-16T03:02:03.986Z,68.99
2017-03-16T03:02:26.054Z,69.06
2017-03-16T03:02:47.884Z,68.84
2017-03-16T03:03:09.652Z,68.71
2017-03-16T03:03:31.486Z,68.89
2017-03-16T03:03:53.259Z,69.27
2017-03-16T03:04:56.790Z,69.46
2017-03-16T03:05:18.578Z,69.35
2017-03-16T03:06:16.963Z,68.89
2017-03-16T03:06:38.945Z,68.93
2017-03-16T03:07:00.886Z,69.12
2017-03-16T03:07:22.742Z,69.28
2017-03-16T03:07:44.575Z,69.04
2017-03-16T03:08:06.389Z,68.79
2017-03-16T03:08:28.234Z,68.72
2017-03-16T03:08:49.999Z,68.50
2017-03-16T03:09:11.794Z,68.52
2017-03-16T03:09:33.712Z,69.04
2017-03-16T03:09:55.549Z,69.45
2017-03-16T03:10:17.342Z,69.22
2017-03-16T03:10:39.233Z,69.15
2017-03-16T03:11:01.124Z,69.22
2017-03-16T03:11:22.903Z,68.93
2017-03-16T03:11:44.650Z,68.93
2017-03-16T03:12:09.222Z,68.98
2017-03-16T03:12:30.995Z,68.94
2017-03-16T03:12:52.684Z,68.77
2017-03-16T03:13:14.985Z,68.80
2017-03-16T03:13:41.610Z,68.61
2017-03-16T03:14:03.409Z,68.56
2017-03-16T03:14:30.140Z,68.88
2017-03-16T03:14:51.901Z,68.96
2017-03-16T03:15:13.697Z,68.97
2017-03-16T03:15:40.296Z,68.86
2017-03-16T03:16:02.093Z,68.98
2017-03-16T03:17:09.690Z,68.73
2017-03-16T03:17:31.604Z,68.56
2017-03-16T03:18:02.987Z,68.83
2017-03-16T03:18:24.792Z,68.78
2017-03-16T03:19:27.305Z,69.26
2017-03-16T03:19:49.316Z,69.43
2017-03-16T03:20:11.091Z,69.32
2017-03-16T03:20:32.924Z,69.19
2017-03-16T03:20:54.725Z,69.50
2017-03-16T03:21:16.586Z,69.78
2017-03-16T03:21:38.311Z,70.08
2017-03-16T03:22:41.495Z,70.26
2017-03-16T03:23:03.244Z,70.22
2017-03-16T03:23:34.528Z,70.16
2017-03-16T03:23:56.316Z,70.29
2017-03-16T03:24:22.834Z,70.29
2017-03-16T03:25:19.010Z,70.59
2017-03-16T03:25:45.540Z,70.83
2017-03-16T03:26:07.521Z,70.87
2017-03-16T03:26:29.485Z,70.78
2017-03-16T03:26:56.027Z,70.58
2017-03-16T03:27:17.981Z,70.35
2017-03-16T03:27:49.270Z,70.05
2017-03-16T03:28:11.224Z,69.83
2017-03-16T03:28:42.616Z,69.84
2017-03-16T03:29:05.566Z,69.61
2017-03-16T03:30:13.006Z,69.01
2017-03-16T03:30:34.863Z,68.86
2017-03-16T03:31:06.197Z,69.09
2017-03-16T03:31:27.904Z,68.97
2017-03-16T03:31:49.850Z,69.05
2017-03-16T03:32:11.644Z,69.22
2017-03-16T03:32:38.247Z,69.38
2017-03-16T03:33:36.738Z,69.39
2017-03-16T03:33:58.602Z,69.33
2017-03-16T03:34:20.576Z,69.20
2017-03-16T03:34:42.463Z,69.10
2017-03-16T03:35:06.933Z,69.44
2017-03-16T03:35:28.691Z,69.74
2017-03-16T03:35:50.493Z,69.72
2017-03-16T03:36:12.258Z,69.76
2017-03-16T03:36:34.098Z,69.70
2017-03-16T03:36:55.836Z,69.63
2017-03-16T03:37:17.637Z,69.90
2017-03-16T03:37:39.457Z,70.11
2017-03-16T03:38:01.403Z,70.11
2017-03-16T03:38:23.256Z,70.16
2017-03-16T03:38:45.043Z,69.81
2017-03-16T03:39:06.893Z,69.66
2017-03-16T03:39:28.799Z,69.72
2017-03-16T03:39:50.574Z,69.88
2017-03-16T03:40:12.318Z,69.80
2017-03-16T03:41:24.583Z,69.74
2017-03-16T03:41:51.146Z,69.58
2017-03-16T03:42:12.980Z,69.32
2017-03-16T03:42:34.783Z,69.27
2017-03-16T03:42:58.682Z,69.04
2017-03-16T03:43:20.423Z,68.89
2017-03-16T03:43:42.527Z,68.97
2017-03-16T03:44:04.259Z,69.03
2017-03-16T03:44:26.006Z,68.81
2017-03-16T03:44:47.802Z,68.64
2017-03-16T03:45:09.675Z,68.84
2017-03-16T03:45:31.446Z,68.98
2017-03-16T03:45:53.243Z,68.88
2017-03-16T03:46:15.018Z,68.90
2017-03-16T03:46:37.083Z,69.08
2017-03-16T03:46:58.936Z,69.45
2017-03-16T03:47:23.507Z,69.39
2017-03-16T03:47:45.249Z,69.18
2017-03-16T03:48:07.111Z,69.12
2017-03-16T03:48:29.002Z,69.17
2017-03-16T03:48:50.775Z,69.37
2017-03-16T03:49:12.551Z,69.34
2017-03-16T03:49:34.419Z,69.26
2017-03-16T03:49:56.230Z,69.31
2017-03-16T03:50:18.031Z,69.35
2017-03-16T03:50:39.763Z,69.44
2017-03-16T03:51:01.597Z,69.54
2017-03-16T03:51:23.368Z,69.55
2017-03-16T03:51:45.091Z,69.20
2017-03-16T03:52:33.500Z,69.42
2017-03-16T03:52:55.262Z,69.47
2017-03-16T03:53:17.220Z,69.35
2017-03-16T03:53:38.839Z,69.52
2017-03-16T03:54:00.610Z,69.63
2017-03-16T03:54:22.385Z,69.68
2017-03-16T03:54:44.198Z,69.65
2017-03-16T03:55:06.109Z,69.45
2017-03-16T03:55:27.942Z,69.44
2017-03-16T03:55:49.690Z,69.70
2017-03-16T03:56:14.021Z,69.96
2017-03-16T03:56:35.823Z,70.34
2017-03-16T03:56:57.556Z,70.53
2017-03-16T03:57:28.870Z,70.65
2017-03-16T03:57:50.773Z,70.69
2017-03-16T03:58:22.174Z,70.45
2017-03-16T03:58:43.921Z,70.31
2017-03-16T03:59:15.243Z,70.50
2017-03-16T03:59:36.992Z,70.75
2017-03-16T04:00:03.590Z,70.76
2017-03-16T04:00:25.539Z,70.68
2017-03-16T04:00:56.863Z,70.41
2017-03-16T04:01:18.680Z,70.22
2017-03-16T04:01:45.205Z,70.07
2017-03-16T04:02:06.996Z,70.16
2017-03-16T04:02:38.394Z,70.23
2017-03-16T04:03:31.680Z,70.20
2017-03-16T04:04:03.116Z,70.13
2017-03-16T04:04:29.639Z,70.44
2017-03-16T04:04:51.426Z,70.51
2017-03-16T04:05:13.170Z,70.42
2017-03-16T04:05:39.947Z,70.35
2017-03-16T04:06:01.886Z,70.42
2017-03-16T04:06:33.135Z,70.91
2017-03-16T04:06:54.871Z,71.10
2017-03-16T04:07:16.729Z,71.12
2017-03-16T04:07:39.155Z,70.99
2017-03-16T04:08:00.975Z,71.15
2017-03-16T04:08:22.800Z,71.04
2017-03-16T04:08:44.555Z,70.82
2017-03-16T04:09:06.387Z,70.62
2017-03-16T04:09:28.127Z,70.59
2017-03-16T04:09:49.937Z,71.14
2017-03-16T04:10:11.664Z,70.97
2017-03-16T04:10:33.477Z,70.57
2017-03-16T04:10:55.217Z,70.19
2017-03-16T04:11:17.062Z,70.08
2017-03-16T04:11:38.833Z,69.97
2017-03-16T04:12:00.652Z,69.89
2017-03-16T04:12:22.427Z,69.79
2017-03-16T04:12:44.243Z,70.14
2017-03-16T04:13:05.999Z,70.08
2017-03-16T04:13:27.795Z,70.22
2017-03-16T04:13:49.528Z,70.22
2017-03-16T04:14:11.282Z,70.31
2017-03-16T04:14:37.922Z,70.44
2017-03-16T04:14:59.657Z,70.43
2017-03-16T04:16:02.843Z,70.39
2017-03-16T04:16:24.603Z,70.29
2017-03-16T04:17:27.168Z,70.08
2017-03-16T04:17:53.692Z,69.79
2017-03-16T04:18:15.460Z,69.73
2017-03-16T04:18:42.083Z,69.69
2017-03-16T04:19:03.843Z,69.72
2017-03-16T04:19:35.126Z,69.84
2017-03-16T04:19:56.920Z,69.98
2017-03-16T04:20:18.674Z,70.10
2017-03-16T04:20:45.170Z,70.04
2017-03-16T04:21:06.899Z,70.12
2017-03-16T04:21:33.502Z,70.12
2017-03-16T04:21:55.268Z,69.91
2017-03-16T04:22:21.765Z,70.34
2017-03-16T04:22:43.505Z,70.46
2017-03-16T04:23:50.815Z,70.44
2017-03-16T04:24:12.545Z,70.35
2017-03-16T04:24:34.266Z,70.44
2017-03-16T04:24:56.269Z,70.60
2017-03-16T04:25:18.009Z,70.73
2017-03-16T04:25:39.823Z,70.63
2017-03-16T04:26:01.580Z,70.64
2017-03-16T04:26:23.450Z,70.46
2017-03-16T04:26:45.515Z,70.56
2017-03-16T04:27:12.029Z,70.72
2017-03-16T04:27:33.845Z,70.66
2017-03-16T04:28:00.330Z,70.68
2017-03-16T04:28:22.059Z,70.56
2017-03-16T04:28:48.611Z,70.37
2017-03-16T04:29:10.344Z,70.43
2017-03-16T04:29:36.855Z,70.40
2017-03-16T04:29:58.620Z,70.26
2017-03-16T04:31:01.224Z,70.22
2017-03-16T04:31:22.949Z,70.20
2017-03-16T04:31:44.699Z,70.30
2017-03-16T04:32:06.415Z,70.51
2017-03-16T04:32:28.230Z,70.97
2017-03-16T04:32:49.993Z,70.90
2017-03-16T04:33:11.804Z,70.83
2017-03-16T04:33:33.575Z,70.75
2017-03-16T04:33:55.386Z,70.60
2017-03-16T04:34:17.173Z,70.59
2017-03-16T04:34:39.029Z,70.45
2017-03-16T04:35:00.772Z,70.86
2017-03-16T04:35:22.619Z,71.13
2017-03-16T04:35:44.381Z,70.88
2017-03-16T04:36:06.156Z,70.98
2017-03-16T04:36:27.883Z,70.91
2017-03-16T04:36:49.702Z,70.98
2017-03-16T04:37:11.423Z,71.21
2017-03-16T04:37:33.189Z,71.48
2017-03-16T04:37:55.054Z,71.62
2017-03-16T04:38:16.875Z,71.54
2017-03-16T04:38:38.660Z,71.20
2017-03-16T04:39:00.405Z,71.13
2017-03-16T04:39:22.239Z,71.48
2017-03-16T04:39:44.074Z,71.52
2017-03-16T04:40:06.928Z,71.43
2017-03-16T04:40:28.658Z,71.11
2017-03-16T04:40:50.342Z,70.96
2017-03-16T04:41:16.893Z,70.54
2017-03-16T04:41:38.631Z,70.59
2017-03-16T04:42:41.785Z,70.84
2017-03-16T04:43:03.480Z,71.12
2017-03-16T04:43:25.273Z,71.24
2017-03-16T04:43:51.834Z,71.08
2017-03-16T04:44:18.418Z,70.78
2017-03-16T04:44:44.933Z,70.65
2017-03-16T04:45:06.671Z,70.88
2017-03-16T04:45:38.105Z,71.36
2017-03-16T04:45:59.798Z,71.42
2017-03-16T04:46:26.323Z,71.09
2017-03-16T04:46:48.043Z,71.28
2017-03-16T04:47:14.691Z,71.14
2017-03-16T04:47:36.408Z,71.06
2017-03-16T04:48:07.665Z,71.12
2017-03-16T04:48:29.454Z,71.17
2017-03-16T04:49:32.546Z,71.27
2017-03-16T04:49:54.322Z,70.97
2017-03-16T04:50:57.420Z,71.56
2017-03-16T04:51:20.206Z,71.81
2017-03-16T04:52:18.591Z,71.43
2017-03-16T04:53:21.154Z,72.21
2017-03-16T04:53:42.989Z,72.46
2017-03-16T04:54:04.857Z,72.47
2017-03-16T04:54:26.772Z,72.72
2017-03-16T04:54:48.527Z,73.31
2017-03-16T04:55:10.318Z,73.59
2017-03-16T04:55:32.081Z,73.35
2017-03-16T04:55:54.045Z,73.28
2017-03-16T04:56:15.865Z,73.23
2017-03-16T04:56:37.673Z,73.14
2017-03-16T04:56:59.378Z,72.76
2017-03-16T04:57:21.218Z,72.35
2017-03-16T04:58:33.416Z,72.68
2017-03-16T04:58:55.066Z,72.66
2017-03-16T04:59:16.833Z,72.69
2017-03-16T04:59:43.356Z,72.66
2017-03-16T05:00:05.160Z,72.50
2017-03-16T05:00:26.970Z,72.56
2017-03-16T05:00:48.709Z,72.48
2017-03-16T05:01:10.481Z,72.09
2017-03-16T05:01:32.325Z,72.12
2017-03-16T05:02:01.446Z,73.08
2017-03-16T05:02:23.218Z,72.93
2017-03-16T05:02:54.490Z,72.56
2017-03-16T05:03:16.352Z,72.50
2017-03-16T05:04:23.701Z,73.13
2017-03-16T05:04:45.432Z,73.06
2017-03-16T05:05:16.689Z,72.83
2017-03-16T05:05:38.485Z,72.75
2017-03-16T05:06:09.800Z,72.53
2017-03-16T05:06:31.684Z,72.56
2017-03-16T05:06:58.255Z,72.37
2017-03-16T05:07:20.083Z,72.12
2017-03-16T05:07:46.694Z,71.86
2017-03-16T05:08:08.443Z,71.80
2017-03-16T05:08:34.919Z,71.58
2017-03-16T05:08:56.626Z,71.87
2017-03-16T05:09:59.894Z,71.55
2017-03-16T05:10:21.627Z,71.60
2017-03-16T05:11:33.689Z,72.24
2017-03-16T05:11:55.431Z,72.37
2017-03-16T05:12:17.154Z,72.25
2017-03-16T05:12:43.719Z,72.63
2017-03-16T05:13:05.445Z,72.94
2017-03-16T05:14:08.622Z,72.51
2017-03-16T05:14:30.396Z,72.38
2017-03-16T05:14:52.144Z,72.16
2017-03-16T05:15:23.408Z,72.11
2017-03-16T05:15:45.202Z,71.82
2017-03-16T05:16:52.470Z,71.82
2017-03-16T05:17:14.212Z,72.05
2017-03-16T05:18:21.520Z,71.78
2017-03-16T05:18:43.246Z,71.73
2017-03-16T05:19:04.963Z,71.59
2017-03-16T05:19:36.242Z,71.52
2017-03-16T05:19:57.954Z,71.78
2017-03-16T05:20:24.435Z,71.67
2017-03-16T05:20:46.223Z,71.76
2017-03-16T05:21:12.692Z,71.79
2017-03-16T05:21:34.394Z,71.70
2017-03-16T05:22:00.957Z,71.92
2017-03-16T05:22:22.659Z,72.16
2017-03-16T05:22:54.010Z,71.88
2017-03-16T05:23:15.802Z,71.98
2017-03-16T05:23:37.514Z,71.73
2017-03-16T05:24:04.103Z,71.64
2017-03-16T05:24:25.888Z,71.67
2017-03-16T05:24:47.675Z,71.93
2017-03-16T05:25:18.940Z,71.99
2017-03-16T05:25:40.724Z,71.95
2017-03-16T05:26:11.987Z,71.79
2017-03-16T05:26:33.768Z,71.72
2017-03-16T05:26:55.467Z,71.72
2017-03-16T05:27:58.070Z,71.80
2017-03-16T05:28:19.791Z,71.47
2017-03-16T05:28:51.048Z,71.48
2017-03-16T05:29:12.861Z,72.06
2017-03-16T05:29:34.550Z,72.15
2017-03-16T05:30:05.803Z,72.36
2017-03-16T05:30:27.587Z,72.22
2017-03-16T05:31:30.683Z,71.83
2017-03-16T05:31:52.474Z,71.62
2017-03-16T05:32:55.533Z,71.18
2017-03-16T05:33:17.329Z,71.27
2017-03-16T05:33:43.813Z,71.47
2017-03-16T05:34:05.520Z,71.27
2017-03-16T05:35:08.812Z,71.61
2017-03-16T05:35:30.524Z,71.65
2017-03-16T05:35:52.216Z,71.44
2017-03-16T05:36:18.770Z,71.39
2017-03-16T05:36:40.503Z,71.70
2017-03-16T05:37:02.208Z,71.97
2017-03-16T05:37:23.931Z,72.20
2017-03-16T05:37:45.718Z,72.30
2017-03-16T05:38:12.196Z,73.39
2017-03-16T05:38:33.906Z,74.21
2017-03-16T05:39:32.362Z,75.55
2017-03-16T05:39:58.810Z,75.39
2017-03-16T05:41:06.131Z,74.02
2017-03-16T05:41:27.853Z,73.78
2017-03-16T05:41:49.575Z,73.56
2017-03-16T05:42:11.289Z,73.60
2017-03-16T05:42:32.995Z,73.78
2017-03-16T05:42:59.535Z,73.55
2017-03-16T05:43:21.236Z,73.15
2017-03-16T05:43:52.503Z,73.22
2017-03-16T05:44:14.252Z,74.12
2017-03-16T05:44:35.953Z,74.61
2017-03-16T05:45:02.419Z,74.17
2017-03-16T05:45:24.136Z,73.98
2017-03-16T05:45:45.825Z,74.18
2017-03-16T05:46:12.309Z,73.92
2017-03-16T05:46:34.005Z,73.68
2017-03-16T05:47:46.186Z,73.66
2017-03-16T05:48:07.881Z,73.63
2017-03-16T05:48:29.595Z,73.70
2017-03-16T05:49:00.978Z,73.65
2017-03-16T05:49:22.627Z,74.14
2017-03-16T05:51:02.213Z,73.59
2017-03-16T05:51:23.902Z,73.49
2017-03-16T05:51:50.504Z,73.59
2017-03-16T05:52:12.213Z,73.49
2017-03-16T05:53:19.554Z,73.44
2017-03-16T05:53:41.255Z,73.73
2017-03-16T05:54:44.314Z,73.36